首页
METAR-TAF:

METAR-TAF

机场 :

努美阿, 新喀里多尼亚

纬度: 22-15-30S, 经度: 166-28-22E, 海拔: 3米

METAR: 丢失

时间: 08:52 (21:52 UTC)

预报

该预报发布于4小时和52分钟前的17:00 UTC
预报有效从19日的 18点(UTC)到 20日的 18点(UTC)
风速2节,风向多变
能见度10公里或以上
少量云层高于6000英尺
成为
从 19日的 23点(UTC)到 20日的 01点(UTC)
风速14节,风向东南

TAF: NWWM 191700Z 1918/2018 VRB02KT 9999 FEW060 BECMG 1923/2001 13014KT

超过4000个机场的气象观测和天气预报(METAR&TAF报告)。

可查询的气象台以黄色和红色小点在地图上表示。

将鼠标移到小点上方,可查看气象台名称。

然后点击查看天气观测和预报。

如需切换地图:点击带黑十字的绿色按钮放大地图;点击带横线的绿色按钮缩小地图;或者点击绿色箭头查看邻近地区的地图。


METAR-TAF: